createdAt,value
2022-12-14T00:02:19.954Z,2.11
2022-12-14T00:05:05.952Z,2.12
2022-12-14T00:07:51.595Z,2.13
2022-12-14T00:10:38.276Z,2.12
2022-12-14T00:13:23.823Z,2.07
2022-12-14T00:16:13.063Z,2.07
2022-12-14T00:19:00.347Z,2.08
2022-12-14T00:21:46.107Z,2.15
2022-12-14T00:24:31.375Z,2.19
2022-12-14T00:27:16.816Z,2.21
2022-12-14T00:30:02.297Z,2.23
2022-12-14T00:32:48.190Z,2.25
2022-12-14T00:35:33.421Z,2.26
2022-12-14T00:38:18.763Z,2.31
2022-12-14T00:41:04.046Z,2.34
2022-12-14T00:43:49.971Z,2.35
2022-12-14T00:46:35.388Z,2.39
2022-12-14T00:49:20.768Z,2.42
2022-12-14T00:52:06.708Z,2.41
2022-12-14T00:54:52.085Z,2.41
2022-12-14T00:57:37.603Z,2.41
2022-12-14T01:00:22.813Z,2.37
2022-12-14T01:03:08.605Z,2.35
2022-12-14T01:05:54.556Z,2.29
2022-12-14T01:08:39.820Z,2.23
2022-12-14T01:11:25.471Z,2.16
2022-12-14T01:14:13.092Z,2.12
2022-12-14T01:16:58.387Z,1.99
2022-12-14T01:19:44.271Z,1.90
2022-12-14T01:22:34.705Z,1.77
2022-12-14T01:25:19.899Z,1.67
2022-12-14T01:28:05.425Z,1.61
2022-12-14T01:30:50.672Z,1.50
2022-12-14T01:33:36.762Z,1.41
2022-12-14T01:36:24.683Z,1.34
2022-12-14T01:39:15.686Z,1.29
2022-12-14T01:42:00.948Z,1.24
2022-12-14T01:44:52.851Z,1.17
2022-12-14T01:47:43.077Z,1.10
2022-12-14T01:50:28.630Z,1.01
2022-12-14T01:53:19.638Z,0.98
2022-12-14T01:56:05.428Z,0.91
2022-12-14T01:58:50.955Z,0.89
2022-12-14T02:01:37.128Z,0.83
2022-12-14T02:04:22.900Z,0.82
2022-12-14T02:07:10.032Z,0.85
2022-12-14T02:09:58.724Z,0.89
2022-12-14T02:12:51.110Z,0.90
2022-12-14T02:15:38.949Z,0.85
2022-12-14T02:18:28.082Z,0.86
2022-12-14T02:21:22.694Z,0.89
2022-12-14T02:24:38.282Z,0.90
2022-12-14T02:27:44.967Z,0.88
2022-12-14T02:30:37.422Z,0.95
2022-12-14T02:33:57.392Z,1.01
2022-12-14T02:36:58.136Z,1.04
2022-12-14T02:40:04.663Z,1.00
2022-12-14T02:43:08.338Z,0.97
2022-12-14T02:46:15.746Z,0.98
2022-12-14T02:49:14.758Z,0.98
2022-12-14T02:52:25.726Z,0.99
2022-12-14T02:55:26.682Z,0.96
2022-12-14T02:58:20.892Z,0.97
2022-12-14T03:01:12.092Z,1.03
2022-12-14T03:03:57.869Z,1.00
2022-12-14T03:06:58.119Z,0.91
2022-12-14T03:09:43.818Z,0.95
2022-12-14T03:12:29.100Z,0.94
2022-12-14T03:15:17.788Z,0.95
2022-12-14T03:18:07.744Z,0.93
2022-12-14T03:20:56.170Z,0.97
2022-12-14T03:23:47.022Z,1.03
2022-12-14T03:26:50.348Z,1.14
2022-12-14T03:29:50.019Z,1.16
2022-12-14T03:32:40.628Z,1.13
2022-12-14T03:35:36.579Z,1.10
2022-12-14T03:38:49.381Z,1.09
2022-12-14T03:41:54.743Z,1.11
2022-12-14T03:44:52.611Z,1.12
2022-12-14T03:48:00.332Z,1.11
2022-12-14T03:50:53.263Z,1.09
2022-12-14T03:53:45.390Z,1.10
2022-12-14T03:56:53.943Z,1.14
2022-12-14T03:59:49.328Z,1.14
2022-12-14T04:02:51.784Z,1.14
2022-12-14T04:05:49.121Z,1.19
2022-12-14T04:08:42.581Z,1.24
2022-12-14T04:11:53.579Z,1.28
2022-12-14T04:15:05.525Z,1.30
2022-12-14T04:18:11.639Z,1.33
2022-12-14T04:21:03.690Z,1.35
2022-12-14T04:24:15.632Z,1.39
2022-12-14T04:27:11.786Z,1.36
2022-12-14T04:29:59.387Z,1.41
2022-12-14T04:32:51.757Z,1.41
2022-12-14T04:35:41.356Z,1.38
2022-12-14T04:38:34.989Z,1.34
2022-12-14T04:41:25.054Z,1.24
2022-12-14T04:44:20.136Z,1.27
2022-12-14T04:47:09.900Z,1.23
2022-12-14T04:50:15.306Z,1.23
2022-12-14T04:53:11.172Z,1.17
2022-12-14T04:56:19.042Z,1.12
2022-12-14T04:59:04.728Z,1.15
2022-12-14T05:01:59.716Z,1.22
2022-12-14T05:05:07.207Z,1.30
2022-12-14T05:08:29.895Z,1.54
2022-12-14T05:14:51.257Z,1.78
2022-12-14T05:17:38.673Z,1.83
2022-12-14T05:20:24.632Z,1.91
2022-12-14T05:23:09.922Z,1.93
2022-12-14T05:25:55.260Z,1.94
2022-12-14T05:28:44.659Z,1.97
2022-12-14T05:31:32.887Z,1.95
2022-12-14T05:34:18.589Z,1.92
2022-12-14T05:37:04.311Z,1.95
2022-12-14T05:39:49.925Z,1.97
2022-12-14T05:42:38.242Z,1.89
2022-12-14T05:45:28.501Z,1.88
2022-12-14T05:48:13.808Z,1.91
2022-12-14T05:51:10.332Z,2.01
2022-12-14T05:53:57.242Z,2.11
2022-12-14T05:56:42.388Z,2.16
2022-12-14T05:59:27.896Z,2.22
2022-12-14T06:02:13.339Z,2.23
2022-12-14T06:04:59.089Z,2.25
2022-12-14T06:07:44.621Z,2.26
2022-12-14T06:10:30.119Z,2.23
2022-12-14T06:13:15.677Z,2.16
2022-12-14T06:16:28.349Z,2.11
2022-12-14T06:19:15.051Z,2.11
2022-12-14T06:22:01.327Z,2.12
2022-12-14T06:24:46.867Z,2.07
2022-12-14T06:27:32.731Z,1.98
2022-12-14T06:30:18.326Z,1.93
2022-12-14T06:33:03.861Z,1.91
2022-12-14T06:35:49.252Z,1.83
2022-12-14T06:38:35.720Z,1.75
2022-12-14T06:41:22.039Z,1.70
2022-12-14T06:44:11.075Z,1.70
2022-12-14T06:46:56.880Z,1.74
2022-12-14T06:49:42.275Z,1.71
2022-12-14T06:52:27.684Z,1.68
2022-12-14T06:55:13.341Z,1.60
2022-12-14T06:57:58.916Z,1.61
2022-12-14T07:00:44.664Z,1.52
2022-12-14T07:03:30.541Z,1.57
2022-12-14T07:06:16.747Z,1.56
2022-12-14T07:09:02.743Z,1.58
2022-12-14T07:11:51.355Z,1.60
2022-12-14T07:14:36.698Z,1.56
2022-12-14T07:17:22.518Z,1.60
2022-12-14T07:20:09.448Z,1.63
2022-12-14T07:22:54.644Z,1.65
2022-12-14T07:25:39.987Z,1.71
2022-12-14T07:28:25.267Z,1.78
2022-12-14T07:31:14.157Z,1.86
2022-12-14T07:34:00.382Z,1.87
2022-12-14T07:36:48.933Z,1.89
2022-12-14T07:39:34.225Z,1.84
2022-12-14T07:42:19.657Z,1.86
2022-12-14T07:45:06.332Z,1.88
2022-12-14T07:47:51.902Z,1.93
2022-12-14T07:50:37.384Z,1.97
2022-12-14T07:53:22.721Z,1.99
2022-12-14T07:56:14.496Z,1.99
2022-12-14T07:59:01.683Z,1.98
2022-12-14T08:01:47.216Z,1.98
2022-12-14T08:04:34.592Z,1.96
2022-12-14T08:07:20.333Z,1.97
2022-12-14T08:10:06.279Z,1.97
2022-12-14T08:12:51.719Z,1.96
2022-12-14T08:15:38.678Z,1.95
2022-12-14T08:18:24.434Z,1.90
2022-12-14T08:21:11.991Z,1.86
2022-12-14T08:23:58.031Z,1.84
2022-12-14T08:26:49.016Z,1.79
2022-12-14T08:29:35.249Z,1.72
2022-12-14T08:32:20.745Z,1.67
2022-12-14T08:35:06.677Z,1.62
2022-12-14T08:37:52.713Z,1.62
2022-12-14T08:40:39.466Z,1.63
2022-12-14T08:43:25.241Z,1.65
2022-12-14T08:46:10.942Z,1.64
2022-12-14T08:48:56.978Z,1.63
2022-12-14T08:51:42.645Z,1.63
2022-12-14T08:54:28.135Z,1.64
2022-12-14T08:57:13.515Z,1.70
2022-12-14T09:00:01.802Z,1.73
2022-12-14T09:02:50.655Z,1.75
2022-12-14T09:05:35.961Z,1.81
2022-12-14T09:08:22.332Z,1.83
2022-12-14T09:11:12.734Z,1.88
2022-12-14T09:13:58.384Z,1.96
2022-12-14T09:16:44.019Z,2.05
2022-12-14T09:19:29.817Z,2.13
2022-12-14T09:22:15.374Z,2.23
2022-12-14T09:25:01.120Z,2.30
2022-12-14T09:27:46.676Z,2.34
2022-12-14T09:30:32.117Z,2.38
2022-12-14T09:33:17.411Z,2.18
2022-12-14T09:36:05.748Z,1.93
2022-12-14T09:38:52.824Z,1.79
2022-12-14T09:42:06.024Z,1.73
2022-12-14T09:45:21.979Z,1.70
2022-12-14T09:48:17.121Z,1.68
2022-12-14T09:51:03.295Z,1.65
2022-12-14T09:53:56.754Z,1.62
2022-12-14T09:56:46.558Z,1.54
2022-12-14T09:59:34.110Z,1.51
2022-12-14T10:02:34.927Z,1.49
2022-12-14T10:05:47.930Z,1.51
2022-12-14T10:08:44.728Z,1.49
2022-12-14T10:11:47.892Z,1.49
2022-12-14T10:14:44.429Z,1.51
2022-12-14T10:17:42.369Z,1.54
2022-12-14T10:20:37.499Z,1.53
2022-12-14T10:23:26.196Z,1.49
2022-12-14T10:26:18.791Z,1.48
2022-12-14T10:29:31.414Z,1.47
2022-12-14T10:32:22.797Z,1.51
2022-12-14T10:35:20.316Z,1.59
2022-12-14T10:38:17.787Z,1.66
2022-12-14T10:41:26.787Z,1.68
2022-12-14T10:44:37.477Z,1.65
2022-12-14T10:47:46.736Z,1.65
2022-12-14T10:51:17.193Z,1.65
2022-12-14T10:54:28.607Z,1.60
2022-12-14T10:57:19.664Z,1.52
2022-12-14T11:00:18.460Z,1.47
2022-12-14T11:03:14.711Z,1.39
2022-12-14T11:06:10.018Z,1.35
2022-12-14T11:08:55.820Z,1.32
2022-12-14T11:11:41.849Z,1.36
2022-12-14T11:14:27.957Z,1.50
2022-12-14T11:17:35.043Z,1.89
2022-12-14T11:20:25.429Z,2.34
2022-12-14T11:23:38.495Z,2.54
2022-12-14T11:26:38.106Z,2.69
2022-12-14T11:29:31.981Z,2.83
2022-12-14T11:32:22.405Z,2.89
2022-12-14T11:35:17.473Z,2.84
2022-12-14T11:38:03.556Z,2.74
2022-12-14T11:40:48.914Z,2.62
2022-12-14T11:43:35.233Z,2.53
2022-12-14T11:46:20.887Z,2.46
2022-12-14T11:49:24.428Z,2.40
2022-12-14T11:52:18.429Z,2.33
2022-12-14T11:55:14.231Z,2.28
2022-12-14T11:58:00.818Z,2.21
2022-12-14T12:00:55.760Z,2.20
2022-12-14T12:03:48.521Z,2.24
2022-12-14T12:06:34.277Z,2.28
2022-12-14T12:09:30.657Z,2.40
2022-12-14T12:12:21.812Z,2.67
2022-12-14T12:15:17.944Z,2.93
2022-12-14T12:18:17.205Z,3.10
2022-12-14T12:21:08.878Z,3.16
2022-12-14T12:24:12.972Z,3.11
2022-12-14T12:27:02.691Z,3.10
2022-12-14T12:30:29.809Z,3.11
2022-12-14T12:33:34.580Z,3.19
2022-12-14T12:36:24.320Z,3.24
2022-12-14T12:39:16.433Z,3.32
2022-12-14T12:42:34.369Z,3.33
2022-12-14T12:45:27.555Z,3.32
2022-12-14T12:48:21.720Z,3.38
2022-12-14T12:51:13.419Z,3.43
2022-12-14T12:54:24.778Z,3.41
2022-12-14T12:57:12.481Z,3.41
2022-12-14T12:59:59.623Z,3.29
2022-12-14T13:02:51.826Z,3.31
2022-12-14T13:05:46.622Z,3.30
2022-12-14T13:08:39.472Z,3.34
2022-12-14T13:11:30.274Z,3.37
2022-12-14T13:14:34.011Z,3.38
2022-12-14T13:17:28.905Z,3.41
2022-12-14T13:20:30.624Z,3.51
2022-12-14T13:23:43.628Z,3.54
2022-12-14T13:26:58.327Z,3.55
2022-12-14T13:30:09.512Z,3.54
2022-12-14T13:33:03.815Z,3.47
2022-12-14T13:36:08.404Z,3.37
2022-12-14T13:39:09.075Z,3.25
2022-12-14T13:41:59.995Z,3.17
2022-12-14T13:45:04.431Z,3.14
2022-12-14T13:47:54.592Z,3.16
2022-12-14T13:50:54.225Z,3.18
2022-12-14T13:53:50.243Z,3.18
2022-12-14T13:56:39.600Z,3.11
2022-12-14T13:59:24.920Z,3.04
2022-12-14T14:02:28.853Z,2.93
2022-12-14T14:05:20.360Z,2.88
2022-12-14T14:08:33.275Z,2.82
2022-12-14T14:11:37.090Z,2.80
2022-12-14T14:14:47.575Z,2.82
2022-12-14T14:17:40.130Z,2.80
2022-12-14T14:20:40.926Z,2.77
2022-12-14T14:23:32.398Z,2.78
2022-12-14T14:26:26.828Z,2.80
2022-12-14T14:29:23.611Z,2.83
2022-12-14T14:32:27.938Z,2.90
2022-12-14T14:35:37.911Z,2.95
2022-12-14T14:38:32.584Z,2.99
2022-12-14T14:41:24.748Z,2.92
2022-12-14T14:44:21.683Z,2.80
2022-12-14T14:47:35.853Z,2.72
2022-12-14T14:50:25.911Z,2.66
2022-12-14T14:53:19.017Z,2.64
2022-12-14T14:56:12.430Z,2.55
2022-12-14T14:59:19.440Z,2.49
2022-12-14T15:02:30.467Z,2.39
2022-12-14T15:08:40.608Z,2.10
2022-12-14T15:11:29.854Z,1.96
2022-12-14T15:14:18.065Z,1.79
2022-12-14T15:17:18.895Z,1.69
2022-12-14T15:20:29.109Z,1.53
2022-12-14T15:23:15.633Z,1.40
2022-12-14T15:26:03.999Z,1.36
2022-12-14T15:28:52.743Z,1.36
2022-12-14T15:31:42.913Z,1.36
2022-12-14T15:34:28.680Z,1.37
2022-12-14T15:37:28.032Z,1.37
2022-12-14T15:40:23.151Z,1.37
2022-12-14T15:43:20.186Z,1.37
2022-12-14T15:46:23.769Z,1.37
2022-12-14T15:49:23.254Z,1.35
2022-12-14T15:52:10.997Z,1.33
2022-12-14T15:54:58.252Z,1.33
2022-12-14T15:57:43.995Z,1.34
2022-12-14T16:00:29.847Z,1.35
2022-12-14T16:03:37.932Z,1.37
2022-12-14T16:06:26.271Z,1.36
2022-12-14T16:09:21.662Z,1.36
2022-12-14T16:12:16.752Z,1.34
2022-12-14T16:15:05.398Z,1.34
2022-12-14T16:17:59.240Z,1.34
2022-12-14T16:21:01.693Z,1.32
2022-12-14T16:23:46.957Z,1.31
2022-12-14T16:26:38.016Z,1.27
2022-12-14T16:29:28.742Z,1.27
2022-12-14T16:32:16.223Z,1.23
2022-12-14T16:35:02.593Z,1.21
2022-12-14T16:37:51.224Z,1.17
2022-12-14T16:40:59.390Z,1.14
2022-12-14T16:43:55.667Z,1.08
2022-12-14T16:46:43.093Z,1.01
2022-12-14T16:49:35.795Z,0.94
2022-12-14T16:52:35.694Z,0.84
2022-12-14T16:55:26.417Z,0.74
2022-12-14T16:58:18.134Z,0.62
2022-12-14T17:01:09.596Z,0.50
2022-12-14T17:04:05.497Z,0.38
2022-12-14T17:06:56.159Z,0.26
2022-12-14T17:09:41.558Z,0.16
2022-12-14T17:12:27.252Z,0.09
2022-12-14T17:15:15.003Z,0.01
2022-12-14T17:18:04.015Z,-0.06
2022-12-14T17:20:49.286Z,-0.10
2022-12-14T17:23:39.151Z,-0.13
2022-12-14T17:26:31.913Z,-0.17
2022-12-14T17:29:24.012Z,-0.19
2022-12-14T17:32:12.680Z,-0.19
2022-12-14T17:34:59.592Z,-0.24
2022-12-14T17:37:45.024Z,-0.31
2022-12-14T17:40:30.412Z,-0.38
2022-12-14T17:43:20.982Z,-0.43
2022-12-14T17:46:06.390Z,-0.47
2022-12-14T17:48:52.451Z,-0.43
2022-12-14T17:51:42.138Z,-0.48
2022-12-14T17:54:29.241Z,-0.46
2022-12-14T17:57:26.026Z,-0.48
2022-12-14T18:00:50.666Z,-0.56
2022-12-14T18:03:36.875Z,-0.62
2022-12-14T18:06:22.774Z,-0.66
2022-12-14T18:09:09.113Z,-0.67
2022-12-14T18:12:22.114Z,-0.70
2022-12-14T18:15:00.075Z,-0.76
2022-12-14T18:17:45.435Z,-0.81
2022-12-14T18:20:36.015Z,-0.94
2022-12-14T18:23:22.140Z,-0.99
2022-12-14T18:26:07.516Z,-1.03
2022-12-14T18:28:55.359Z,-1.08
2022-12-14T18:31:41.016Z,-1.10
2022-12-14T18:34:26.494Z,-1.15
2022-12-14T18:37:11.890Z,-1.20
2022-12-14T18:39:57.152Z,-1.21
2022-12-14T18:42:43.486Z,-1.24
2022-12-14T18:45:32.670Z,-1.29
2022-12-14T18:48:18.405Z,-1.29
2022-12-14T18:51:04.536Z,-1.28
2022-12-14T18:53:54.744Z,-1.29
2022-12-14T18:56:43.452Z,-1.32
2022-12-14T18:59:28.643Z,-1.34
2022-12-14T19:02:17.378Z,-1.33
2022-12-14T19:05:04.542Z,-1.34
2022-12-14T19:07:50.008Z,-1.40
2022-12-14T19:10:35.975Z,-1.45
2022-12-14T19:13:26.363Z,-1.42
2022-12-14T19:16:12.650Z,-1.44
2022-12-14T19:18:58.348Z,-1.47
2022-12-14T19:21:43.967Z,-1.51
2022-12-14T19:24:29.418Z,-1.57
2022-12-14T19:27:14.738Z,-1.62
2022-12-14T19:30:00.166Z,-1.68
2022-12-14T19:32:45.824Z,-1.67
2022-12-14T19:35:34.527Z,-1.68
2022-12-14T19:38:20.072Z,-1.72
2022-12-14T19:41:12.029Z,-1.78
2022-12-14T19:43:58.039Z,-1.79
2022-12-14T19:46:43.585Z,-1.76
2022-12-14T19:49:29.148Z,-1.77
2022-12-14T19:52:14.463Z,-1.79
2022-12-14T19:55:01.103Z,-1.79
2022-12-14T19:57:46.415Z,-1.76
2022-12-14T20:00:31.956Z,-1.76
2022-12-14T20:03:17.890Z,-1.71
2022-12-14T20:06:04.770Z,-1.70
2022-12-14T20:08:50.362Z,-1.78
2022-12-14T20:11:36.327Z,-1.80
2022-12-14T20:14:22.037Z,-1.83
2022-12-14T20:17:11.892Z,-1.84
2022-12-14T20:19:57.764Z,-1.86
2022-12-14T20:22:43.308Z,-1.89
2022-12-14T20:25:28.702Z,-1.91
2022-12-14T20:28:14.375Z,-1.95
2022-12-14T20:31:01.380Z,-1.95
2022-12-14T20:33:46.850Z,-1.95
2022-12-14T20:36:32.770Z,-1.95
2022-12-14T20:39:17.937Z,-1.95
2022-12-14T20:42:03.386Z,-1.94
2022-12-14T20:44:49.290Z,-1.94
2022-12-14T20:47:34.848Z,-1.97
2022-12-14T20:50:20.564Z,-2.00
2022-12-14T20:53:06.727Z,-2.06
2022-12-14T20:55:52.194Z,-2.08
2022-12-14T20:58:37.603Z,-2.10
2022-12-14T21:01:23.175Z,-2.10
2022-12-14T21:04:09.622Z,-2.07
2022-12-14T21:06:55.193Z,-2.07
2022-12-14T21:09:40.716Z,-2.08
2022-12-14T21:12:26.141Z,-2.12
2022-12-14T21:15:11.743Z,-2.16
2022-12-14T21:17:57.137Z,-2.18
2022-12-14T21:20:42.642Z,-2.21
2022-12-14T21:23:28.323Z,-2.21
2022-12-14T21:26:14.343Z,-2.23
2022-12-14T21:28:59.758Z,-2.25
2022-12-14T21:31:46.623Z,-2.27
2022-12-14T21:34:32.990Z,-2.27
2022-12-14T21:37:19.322Z,-2.28
2022-12-14T21:40:05.642Z,-2.27
2022-12-14T21:42:51.399Z,-2.24
2022-12-14T21:45:36.849Z,-2.25
2022-12-14T21:48:22.161Z,-2.24
2022-12-14T21:51:17.545Z,-2.25
2022-12-14T21:54:03.613Z,-2.23
2022-12-14T21:57:07.579Z,-2.20
2022-12-14T21:59:53.090Z,-2.20
2022-12-14T22:02:40.242Z,-2.15
2022-12-14T22:05:25.545Z,-2.14
2022-12-14T22:08:10.964Z,-2.14
2022-12-14T22:11:02.350Z,-2.16
2022-12-14T22:13:47.740Z,-2.17
2022-12-14T22:16:34.309Z,-2.19
2022-12-14T22:19:23.243Z,-2.13
2022-12-14T22:22:14.107Z,-2.10
2022-12-14T22:24:59.937Z,-2.09
2022-12-14T22:27:49.564Z,-2.08
2022-12-14T22:30:35.376Z,-2.11
2022-12-14T22:33:20.770Z,-2.10
2022-12-14T22:36:06.322Z,-2.13
2022-12-14T22:38:52.297Z,-2.15
2022-12-14T22:41:38.552Z,-2.15
2022-12-14T22:44:23.905Z,-2.13
2022-12-14T22:47:09.196Z,-2.18
2022-12-14T22:49:54.705Z,-2.22
2022-12-14T22:52:40.464Z,-2.23
2022-12-14T22:55:28.564Z,-2.26
2022-12-14T22:58:16.027Z,-2.23
2022-12-14T23:01:01.869Z,-2.19
2022-12-14T23:03:47.605Z,-2.20
2022-12-14T23:06:33.832Z,-2.17
2022-12-14T23:09:37.964Z,-2.18
2022-12-14T23:12:42.265Z,-2.18
2022-12-14T23:15:46.357Z,-2.17
2022-12-14T23:18:50.410Z,-2.15
2022-12-14T23:21:57.577Z,-2.18
2022-12-14T23:25:01.617Z,-2.19
2022-12-14T23:28:06.047Z,-2.24
2022-12-14T23:31:10.881Z,-2.20
2022-12-14T23:34:14.990Z,-2.22
2022-12-14T23:37:20.667Z,-2.26
2022-12-14T23:40:25.260Z,-2.29
2022-12-14T23:43:35.315Z,-2.28
2022-12-14T23:46:39.383Z,-2.34
2022-12-14T23:49:43.592Z,-2.36
2022-12-14T23:52:47.751Z,-2.39
2022-12-14T23:55:52.005Z,-2.46
2022-12-14T23:58:55.970Z,-2.43
